createdAt,value
2018-11-14T00:00:38.152Z,4.10
2018-11-14T00:01:48.070Z,3.60
2018-11-14T00:02:58.534Z,4.55
2018-11-14T00:04:08.707Z,4.05
2018-11-14T00:05:18.286Z,4.65
2018-11-14T00:06:28.166Z,3.45
2018-11-14T00:07:37.774Z,4.50
2018-11-14T00:08:47.451Z,3.45
2018-11-14T00:09:57.499Z,3.58
2018-11-14T00:11:07.268Z,3.85
2018-11-14T00:12:16.900Z,3.40
2018-11-14T00:13:26.362Z,4.08
2018-11-14T00:14:36.251Z,4.05
2018-11-14T00:15:46.171Z,4.20
2018-11-14T00:16:55.946Z,3.58
2018-11-14T00:18:05.874Z,3.72
2018-11-14T00:19:16.002Z,3.15
2018-11-14T00:20:25.561Z,3.30
2018-11-14T00:21:36.003Z,4.22
2018-11-14T00:22:46.977Z,3.67
2018-11-14T00:23:56.679Z,4.03
2018-11-14T00:25:06.885Z,3.70
2018-11-14T00:26:16.382Z,3.65
2018-11-14T00:27:26.102Z,3.67
2018-11-14T00:28:36.196Z,4.50
2018-11-14T00:29:45.587Z,4.92
2018-11-14T00:30:55.142Z,4.72
2018-11-14T00:32:05.113Z,4.25
2018-11-14T00:33:15.236Z,4.20
2018-11-14T00:34:24.635Z,4.67
2018-11-14T00:35:34.469Z,4.30
2018-11-14T00:36:44.061Z,3.98
2018-11-14T00:37:53.849Z,3.12
2018-11-14T00:39:03.916Z,4.60
2018-11-14T00:40:14.996Z,4.10
2018-11-14T00:41:24.812Z,4.22
2018-11-14T00:42:34.738Z,3.70
2018-11-14T00:43:44.318Z,4.55
2018-11-14T00:44:54.245Z,3.80
2018-11-14T00:46:03.831Z,3.95
2018-11-14T00:47:13.622Z,3.58
2018-11-14T00:48:23.190Z,4.12
2018-11-14T00:49:32.898Z,4.10
2018-11-14T00:50:42.503Z,4.67
2018-11-14T00:51:52.418Z,3.95
2018-11-14T00:53:01.944Z,4.85
2018-11-14T00:54:11.802Z,3.15
2018-11-14T00:55:22.222Z,4.47
2018-11-14T00:56:31.793Z,4.40
2018-11-14T00:57:42.248Z,4.33
2018-11-14T00:58:52.004Z,4.20
2018-11-14T01:00:01.761Z,4.15
2018-11-14T01:01:11.267Z,3.55
2018-11-14T01:02:21.367Z,4.22
2018-11-14T01:03:31.125Z,3.50
2018-11-14T01:04:40.916Z,3.20
2018-11-14T01:05:50.609Z,4.08
2018-11-14T01:07:00.193Z,3.20
2018-11-14T01:08:09.953Z,3.83
2018-11-14T01:09:19.913Z,3.37
2018-11-14T01:10:29.390Z,3.45
2018-11-14T01:11:39.129Z,2.90
2018-11-14T01:12:49.714Z,2.83
2018-11-14T01:13:59.351Z,3.17
2018-11-14T01:15:11.364Z,3.10
2018-11-14T01:16:20.987Z,3.30
2018-11-14T01:17:30.757Z,3.70
2018-11-14T01:18:40.609Z,3.45
2018-11-14T01:19:50.362Z,2.83
2018-11-14T01:20:59.922Z,3.10
2018-11-14T01:22:09.887Z,3.47
2018-11-14T01:23:19.648Z,3.02
2018-11-14T01:24:29.348Z,2.08
2018-11-14T01:25:39.222Z,2.47
2018-11-14T01:26:49.082Z,2.50
2018-11-14T01:27:59.204Z,2.40
2018-11-14T01:29:08.995Z,2.77
2018-11-14T01:30:19.825Z,2.70
2018-11-14T01:31:29.834Z,2.70
2018-11-14T01:32:39.777Z,2.65
2018-11-14T01:33:49.664Z,2.10
2018-11-14T01:34:59.562Z,2.90
2018-11-14T01:36:09.179Z,2.20
2018-11-14T01:37:18.951Z,1.87
2018-11-14T01:38:28.767Z,2.22
2018-11-14T01:39:38.456Z,1.90
2018-11-14T01:40:47.972Z,2.08
2018-11-14T01:41:57.605Z,2.00
2018-11-14T01:43:07.325Z,3.20
2018-11-14T01:44:17.033Z,2.12
2018-11-14T01:45:26.787Z,1.85
2018-11-14T01:46:37.356Z,2.42
2018-11-14T01:47:46.996Z,2.25
2018-11-14T01:48:56.763Z,2.60
2018-11-14T01:50:07.916Z,1.77
2018-11-14T01:51:17.566Z,2.77
2018-11-14T01:52:27.006Z,2.90
2018-11-14T01:53:36.815Z,2.52
2018-11-14T01:54:46.503Z,2.60
2018-11-14T01:55:56.122Z,2.20
2018-11-14T01:57:05.790Z,2.05
2018-11-14T01:58:15.515Z,1.90
2018-11-14T01:59:25.287Z,2.00
2018-11-14T02:00:34.922Z,2.85
2018-11-14T02:01:45.008Z,1.92
2018-11-14T02:02:55.158Z,2.45
2018-11-14T02:04:05.251Z,2.08
2018-11-14T02:05:14.799Z,2.20
2018-11-14T02:06:24.932Z,2.05
2018-11-14T02:07:34.921Z,2.50
2018-11-14T02:08:44.607Z,2.52
2018-11-14T02:09:54.221Z,2.70
2018-11-14T02:11:04.099Z,2.00
2018-11-14T02:12:14.061Z,2.02
2018-11-14T02:13:23.535Z,2.00
2018-11-14T02:14:33.596Z,2.55
2018-11-14T02:15:43.384Z,2.10
2018-11-14T02:16:52.943Z,2.40
2018-11-14T02:18:02.831Z,1.90
2018-11-14T02:19:12.637Z,2.35
2018-11-14T02:20:22.512Z,2.65
2018-11-14T02:21:32.131Z,2.10
2018-11-14T02:22:42.674Z,2.77
2018-11-14T02:23:52.539Z,2.10
2018-11-14T02:25:02.085Z,1.77
2018-11-14T02:26:11.993Z,2.33
2018-11-14T02:27:21.616Z,2.77
2018-11-14T02:28:31.578Z,1.65
2018-11-14T02:29:41.495Z,2.22
2018-11-14T02:30:50.977Z,1.90
2018-11-14T02:32:00.520Z,1.65
2018-11-14T02:33:10.374Z,2.10
2018-11-14T02:34:20.194Z,2.70
2018-11-14T02:35:29.617Z,1.92
2018-11-14T02:36:39.745Z,2.37
2018-11-14T02:37:49.659Z,1.92
2018-11-14T02:38:59.261Z,1.70
2018-11-14T02:40:11.225Z,1.80
2018-11-14T02:41:21.056Z,2.15
2018-11-14T02:42:30.737Z,2.10
2018-11-14T02:43:40.776Z,2.42
2018-11-14T02:44:50.370Z,2.35
2018-11-14T02:45:59.991Z,1.98
2018-11-14T02:47:09.830Z,1.80
2018-11-14T02:48:19.762Z,1.87
2018-11-14T02:49:29.312Z,2.10
2018-11-14T02:50:39.205Z,1.65
2018-11-14T02:51:48.783Z,2.10
2018-11-14T02:52:58.653Z,1.85
2018-11-14T02:54:08.327Z,2.35
2018-11-14T02:55:18.626Z,1.90
2018-11-14T02:56:28.462Z,1.77
2018-11-14T02:57:38.541Z,1.85
2018-11-14T02:58:48.250Z,2.10
2018-11-14T02:59:58.250Z,2.67
2018-11-14T03:01:08.513Z,1.87
2018-11-14T03:02:18.403Z,1.90
2018-11-14T03:03:28.122Z,2.17
2018-11-14T03:04:37.843Z,2.10
2018-11-14T03:05:47.699Z,1.75
2018-11-14T03:06:57.701Z,1.50
2018-11-14T03:08:07.185Z,1.95
2018-11-14T03:09:16.942Z,2.05
2018-11-14T03:10:26.612Z,1.80
2018-11-14T03:11:36.307Z,2.12
2018-11-14T03:12:45.957Z,1.60
2018-11-14T03:13:55.670Z,2.55
2018-11-14T03:15:08.022Z,2.35
2018-11-14T03:16:17.633Z,1.75
2018-11-14T03:17:27.287Z,1.92
2018-11-14T03:18:37.169Z,1.92
2018-11-14T03:19:46.964Z,1.70
2018-11-14T03:20:56.663Z,1.80
2018-11-14T03:22:06.498Z,2.27
2018-11-14T03:23:16.193Z,1.77
2018-11-14T03:24:26.121Z,1.77
2018-11-14T03:25:35.992Z,1.70
2018-11-14T03:26:45.897Z,1.92
2018-11-14T03:27:55.594Z,1.85
2018-11-14T03:29:05.472Z,1.35
2018-11-14T03:30:16.249Z,1.42
2018-11-14T03:31:25.854Z,1.60
2018-11-14T03:32:35.605Z,1.70
2018-11-14T03:33:45.384Z,2.08
2018-11-14T03:34:54.986Z,2.58
2018-11-14T03:36:10.175Z,1.32
2018-11-14T03:37:20.302Z,1.80
2018-11-14T03:38:30.266Z,1.85
2018-11-14T03:39:39.958Z,1.80
2018-11-14T03:40:49.931Z,2.37
2018-11-14T03:41:59.732Z,1.60
2018-11-14T03:43:09.386Z,2.12
2018-11-14T03:44:19.008Z,2.47
2018-11-14T03:45:28.901Z,2.00
2018-11-14T03:46:38.503Z,2.30
2018-11-14T03:47:48.297Z,1.92
2018-11-14T03:48:58.078Z,2.10
2018-11-14T03:50:08.272Z,2.00
2018-11-14T03:51:17.789Z,1.80
2018-11-14T03:52:27.555Z,2.27
2018-11-14T03:53:37.574Z,2.05
2018-11-14T03:54:47.430Z,2.08
2018-11-14T03:55:57.105Z,1.80
2018-11-14T03:57:07.113Z,1.80
2018-11-14T03:58:16.968Z,2.37
2018-11-14T03:59:26.745Z,2.05
2018-11-14T04:00:36.526Z,2.25
2018-11-14T04:01:46.295Z,2.58
2018-11-14T04:02:55.857Z,2.42
2018-11-14T04:04:06.236Z,1.50
2018-11-14T04:05:16.016Z,1.67
2018-11-14T04:06:25.831Z,1.70
2018-11-14T04:07:35.517Z,1.77
2018-11-14T04:08:45.281Z,2.00
2018-11-14T04:09:54.898Z,1.95
2018-11-14T04:11:05.028Z,1.52
2018-11-14T04:12:14.693Z,2.10
2018-11-14T04:13:24.302Z,1.90
2018-11-14T04:14:34.035Z,2.30
2018-11-14T04:15:43.555Z,2.15
2018-11-14T04:16:53.498Z,1.98
2018-11-14T04:18:03.279Z,1.75
2018-11-14T04:19:12.743Z,1.82
2018-11-14T04:20:22.331Z,2.17
2018-11-14T04:21:31.958Z,2.12
2018-11-14T04:22:41.926Z,2.42
2018-11-14T04:23:51.635Z,2.10
2018-11-14T04:25:01.184Z,1.65
2018-11-14T04:26:11.308Z,2.35
2018-11-14T04:27:21.149Z,2.47
2018-11-14T04:28:30.731Z,2.00
2018-11-14T04:29:40.699Z,1.90
2018-11-14T04:30:50.783Z,1.90
2018-11-14T04:32:00.444Z,1.98
2018-11-14T04:33:10.064Z,1.92
2018-11-14T04:34:19.753Z,1.62
2018-11-14T04:35:29.424Z,1.52
2018-11-14T04:36:39.434Z,1.70
2018-11-14T04:37:48.937Z,2.37
2018-11-14T04:38:58.549Z,1.90
2018-11-14T04:40:10.413Z,1.90
2018-11-14T04:41:20.361Z,2.65
2018-11-14T04:42:30.080Z,2.00
2018-11-14T04:43:39.838Z,1.80
2018-11-14T04:44:49.554Z,2.10
2018-11-14T04:45:59.825Z,1.80
2018-11-14T04:47:09.616Z,1.90
2018-11-14T04:48:19.318Z,2.52
2018-11-14T04:49:29.343Z,1.75
2018-11-14T04:50:39.020Z,2.67
2018-11-14T04:51:48.643Z,1.65
2018-11-14T04:52:58.105Z,1.95
2018-11-14T04:54:07.816Z,2.15
2018-11-14T04:55:18.681Z,2.90
2018-11-14T04:56:28.767Z,2.05
2018-11-14T04:57:39.021Z,2.20
2018-11-14T04:58:48.576Z,2.65
2018-11-14T04:59:58.236Z,2.12
2018-11-14T05:01:07.975Z,2.50
2018-11-14T05:02:17.752Z,2.35
2018-11-14T05:03:27.552Z,2.50
2018-11-14T05:04:37.258Z,2.40
2018-11-14T05:05:47.015Z,2.65
2018-11-14T05:06:56.799Z,3.10
2018-11-14T05:08:06.650Z,2.40
2018-11-14T05:09:16.334Z,2.52
2018-11-14T05:10:26.991Z,2.85
2018-11-14T05:11:36.709Z,2.47
2018-11-14T05:12:46.645Z,3.00
2018-11-14T05:13:56.318Z,2.15
2018-11-14T05:15:06.429Z,2.67
2018-11-14T05:16:16.174Z,2.50
2018-11-14T05:17:25.801Z,2.50
2018-11-14T05:18:35.518Z,2.45
2018-11-14T05:19:45.214Z,2.47
2018-11-14T05:20:55.087Z,2.47
2018-11-14T05:22:04.945Z,2.40
2018-11-14T05:23:14.509Z,2.10
2018-11-14T05:24:24.279Z,2.17
2018-11-14T05:25:34.196Z,3.12
2018-11-14T05:26:50.896Z,3.02
2018-11-14T05:28:00.691Z,2.55
2018-11-14T05:29:10.631Z,1.90
2018-11-14T05:30:22.730Z,2.15
2018-11-14T05:31:32.510Z,2.30
2018-11-14T05:32:43.364Z,2.15
2018-11-14T05:33:53.061Z,2.50
2018-11-14T05:35:02.894Z,2.47
2018-11-14T05:36:12.665Z,2.10
2018-11-14T05:37:22.462Z,2.25
2018-11-14T05:38:31.996Z,2.50
2018-11-14T05:39:41.533Z,2.52
2018-11-14T05:40:51.352Z,2.25
2018-11-14T05:42:01.064Z,2.52
2018-11-14T05:43:10.684Z,2.83
2018-11-14T05:44:20.325Z,2.33
2018-11-14T05:45:29.955Z,2.55
2018-11-14T05:46:39.514Z,3.00
2018-11-14T05:47:49.164Z,2.80
2018-11-14T05:48:59.082Z,2.50
2018-11-14T05:50:12.387Z,3.00
2018-11-14T05:51:22.048Z,2.67
2018-11-14T05:52:31.562Z,2.72
2018-11-14T05:53:41.116Z,3.47
2018-11-14T05:54:51.294Z,2.77
2018-11-14T05:56:01.038Z,3.37
2018-11-14T05:57:10.754Z,2.83
2018-11-14T05:58:20.230Z,3.30
2018-11-14T05:59:29.787Z,3.45
2018-11-14T06:00:39.464Z,3.62
2018-11-14T06:01:48.901Z,3.80
2018-11-14T06:02:59.610Z,2.77
2018-11-14T06:04:10.035Z,3.42
2018-11-14T06:05:19.724Z,2.92
2018-11-14T06:06:29.740Z,3.92
2018-11-14T06:07:39.574Z,3.70
2018-11-14T06:08:49.194Z,3.87
2018-11-14T06:09:58.833Z,4.15
2018-11-14T06:11:08.620Z,3.80
2018-11-14T06:12:18.594Z,4.30
2018-11-14T06:13:28.054Z,3.50
2018-11-14T06:14:37.838Z,4.42
2018-11-14T06:15:47.409Z,3.75
2018-11-14T06:16:57.353Z,3.95
2018-11-14T06:18:06.946Z,3.92
2018-11-14T06:19:16.606Z,3.50
2018-11-14T06:20:26.735Z,3.42
2018-11-14T06:21:36.619Z,3.90
2018-11-14T06:22:47.276Z,4.03
2018-11-14T06:23:56.999Z,4.67
2018-11-14T06:25:28.896Z,5.45
2018-11-14T06:26:38.672Z,4.22
2018-11-14T06:27:48.719Z,3.98
2018-11-14T06:28:58.473Z,4.22
2018-11-14T06:30:08.384Z,5.42
2018-11-14T06:31:18.225Z,6.00
2018-11-14T06:32:27.775Z,6.12
2018-11-14T06:33:37.420Z,6.90
2018-11-14T06:34:47.432Z,8.30
2018-11-14T06:35:56.946Z,7.85
2018-11-14T06:37:06.625Z,7.67
2018-11-14T06:38:16.300Z,7.62
2018-11-14T06:39:26.185Z,6.72
2018-11-14T06:40:36.124Z,9.10
2018-11-14T06:41:45.765Z,8.80
2018-11-14T06:42:55.366Z,9.23
2018-11-14T06:44:05.255Z,8.80
2018-11-14T06:45:16.137Z,7.72
2018-11-14T06:46:26.338Z,8.38
2018-11-14T06:47:35.970Z,9.35
2018-11-14T06:48:45.569Z,8.23
2018-11-14T06:49:55.185Z,9.13
2018-11-14T06:51:04.954Z,7.87
2018-11-14T06:52:15.098Z,9.38
2018-11-14T06:53:24.563Z,9.43
2018-11-14T06:54:34.401Z,9.28
2018-11-14T06:55:44.365Z,8.53
2018-11-14T06:56:53.944Z,8.05
2018-11-14T06:58:03.838Z,8.25
2018-11-14T06:59:13.570Z,7.45
2018-11-14T07:00:29.798Z,9.53
2018-11-14T07:01:39.433Z,8.70
2018-11-14T07:02:49.493Z,8.95
2018-11-14T07:03:59.075Z,8.18
2018-11-14T07:05:11.423Z,8.43
2018-11-14T07:06:21.711Z,8.65
2018-11-14T07:07:31.287Z,7.33
2018-11-14T07:08:41.142Z,9.93
2018-11-14T07:09:50.900Z,9.25
2018-11-14T07:11:00.794Z,8.50
2018-11-14T07:12:10.273Z,9.00
2018-11-14T07:13:20.174Z,9.28
2018-11-14T07:14:30.228Z,8.25
2018-11-14T07:15:40.362Z,8.70
2018-11-14T07:16:49.925Z,9.40
2018-11-14T07:17:59.779Z,8.35
2018-11-14T07:19:09.530Z,9.05
2018-11-14T07:20:22.123Z,7.83
2018-11-14T07:21:31.867Z,9.28
2018-11-14T07:22:41.647Z,10.35
2018-11-14T07:23:51.310Z,8.10
2018-11-14T07:25:00.991Z,9.53
2018-11-14T07:26:10.651Z,10.10
2018-11-14T07:27:20.393Z,9.55
2018-11-14T07:28:30.270Z,8.75
2018-11-14T07:29:39.976Z,8.08
2018-11-14T07:30:49.651Z,10.25
2018-11-14T07:31:59.474Z,10.55
2018-11-14T07:33:10.451Z,11.08
2018-11-14T07:34:20.126Z,10.30
2018-11-14T07:35:30.025Z,10.30
2018-11-14T07:36:39.911Z,8.10
2018-11-14T07:39:00.912Z,9.20
2018-11-14T07:40:12.499Z,8.40
2018-11-14T07:41:24.309Z,10.03
2018-11-14T07:42:34.363Z,9.80
2018-11-14T07:43:44.384Z,10.68
2018-11-14T07:44:54.195Z,8.78
2018-11-14T07:46:04.380Z,9.48
2018-11-14T07:47:14.091Z,9.50
2018-11-14T07:48:23.834Z,8.60
2018-11-14T07:49:33.523Z,7.70
2018-11-14T07:50:43.127Z,8.68
2018-11-14T07:51:52.830Z,8.43
2018-11-14T07:53:02.686Z,7.65
2018-11-14T07:54:12.399Z,8.65
2018-11-14T07:55:21.987Z,7.53
2018-11-14T07:56:32.477Z,8.28
2018-11-14T07:57:42.334Z,8.15
2018-11-14T07:58:52.146Z,8.10
2018-11-14T08:00:01.691Z,8.03
2018-11-14T08:01:11.213Z,8.20
2018-11-14T08:02:21.331Z,8.43
2018-11-14T08:03:30.992Z,7.55
2018-11-14T08:04:40.913Z,7.65
2018-11-14T08:05:50.843Z,6.55
2018-11-14T08:07:00.502Z,7.03
2018-11-14T08:08:10.028Z,7.83
2018-11-14T08:09:19.674Z,6.45
2018-11-14T08:10:29.214Z,7.60
2018-11-14T08:11:39.030Z,7.35
2018-11-14T08:12:48.856Z,7.03
2018-11-14T08:13:58.741Z,6.67
2018-11-14T08:15:09.203Z,6.85
2018-11-14T08:16:19.249Z,7.03
2018-11-14T08:17:29.037Z,6.92
2018-11-14T08:18:38.828Z,7.53
2018-11-14T08:19:48.454Z,7.80
2018-11-14T08:20:58.749Z,8.45
2018-11-14T08:22:08.693Z,6.45
2018-11-14T08:23:18.482Z,6.17
2018-11-14T08:24:28.190Z,7.12
2018-11-14T08:25:37.682Z,7.05
2018-11-14T08:26:47.739Z,7.50
2018-11-14T08:27:57.482Z,7.05
2018-11-14T08:29:07.290Z,6.55
2018-11-14T08:30:16.814Z,7.65
2018-11-14T08:31:26.589Z,6.65
2018-11-14T08:32:36.590Z,6.97
2018-11-14T08:33:46.061Z,7.53
2018-11-14T08:34:55.908Z,8.15
2018-11-14T08:36:05.884Z,7.90
2018-11-14T08:37:15.462Z,7.45
2018-11-14T08:38:25.603Z,8.35
2018-11-14T08:39:35.344Z,6.85
2018-11-14T08:40:44.972Z,7.15
2018-11-14T08:41:54.617Z,7.00
2018-11-14T08:43:04.651Z,6.65
2018-11-14T08:44:14.497Z,6.65
2018-11-14T08:45:24.438Z,7.25
2018-11-14T08:46:34.154Z,7.33
2018-11-14T08:47:44.268Z,7.20
2018-11-14T08:48:54.077Z,7.83
2018-11-14T08:50:04.233Z,7.03
2018-11-14T08:51:14.114Z,8.23
2018-11-14T08:52:23.865Z,6.75
2018-11-14T08:53:33.566Z,7.70
2018-11-14T08:54:43.180Z,7.62
2018-11-14T08:55:52.670Z,7.05
2018-11-14T08:57:02.342Z,7.33
2018-11-14T08:58:13.151Z,7.53
2018-11-14T08:59:22.855Z,8.35
2018-11-14T09:00:32.838Z,8.90
2018-11-14T09:01:42.606Z,7.17
2018-11-14T09:02:52.678Z,8.63
2018-11-14T09:04:02.688Z,8.60
2018-11-14T09:05:12.636Z,8.20
2018-11-14T09:06:22.590Z,8.58
2018-11-14T09:07:32.422Z,7.50
2018-11-14T09:08:42.033Z,7.40
2018-11-14T09:09:51.780Z,8.25
2018-11-14T09:11:01.573Z,8.48
2018-11-14T09:12:11.069Z,8.10
2018-11-14T09:13:20.808Z,8.53
2018-11-14T09:14:30.348Z,8.85
2018-11-14T09:15:40.265Z,7.50
2018-11-14T09:16:50.306Z,7.97
2018-11-14T09:17:59.876Z,8.53
2018-11-14T09:19:09.633Z,9.00
2018-11-14T09:20:20.545Z,8.55
2018-11-14T09:21:30.250Z,8.50
2018-11-14T09:22:40.242Z,7.90
2018-11-14T09:23:49.906Z,8.98
2018-11-14T09:24:59.703Z,8.48
2018-11-14T09:26:09.195Z,8.50
2018-11-14T09:27:19.070Z,7.67
2018-11-14T09:28:28.687Z,8.10
2018-11-14T09:29:38.448Z,8.60
2018-11-14T09:30:47.959Z,9.28
2018-11-14T09:31:57.878Z,8.85
2018-11-14T09:33:08.029Z,8.40
2018-11-14T09:34:17.692Z,8.40
2018-11-14T09:35:27.957Z,8.90
2018-11-14T09:36:37.897Z,7.15
2018-11-14T09:37:47.625Z,7.90
2018-11-14T09:38:57.160Z,9.40
2018-11-14T09:40:07.958Z,7.62
2018-11-14T09:41:17.507Z,9.78
2018-11-14T09:42:27.231Z,8.85
2018-11-14T09:43:37.231Z,8.98
2018-11-14T09:44:47.009Z,8.55
2018-11-14T09:45:56.825Z,9.30
2018-11-14T09:47:06.539Z,9.50
2018-11-14T09:48:16.223Z,9.68
2018-11-14T09:49:26.072Z,9.05
2018-11-14T09:50:35.783Z,8.30
2018-11-14T09:51:45.473Z,8.63
2018-11-14T09:52:56.570Z,8.85
2018-11-14T09:54:06.314Z,9.18
2018-11-14T09:55:15.983Z,10.20
2018-11-14T09:56:25.664Z,9.75
2018-11-14T09:57:35.449Z,9.10
2018-11-14T09:58:45.375Z,10.15
2018-11-14T09:59:55.471Z,10.13
2018-11-14T10:01:05.722Z,9.28
2018-11-14T10:02:15.285Z,10.08
2018-11-14T10:03:25.176Z,10.43
2018-11-14T10:04:34.982Z,10.45
2018-11-14T10:05:44.644Z,10.08
2018-11-14T10:06:54.507Z,9.80
2018-11-14T10:08:04.091Z,11.05
2018-11-14T10:09:14.580Z,10.10
2018-11-14T10:10:24.691Z,11.50
2018-11-14T10:11:34.269Z,9.83
2018-11-14T10:12:43.897Z,12.13
2018-11-14T10:13:53.706Z,9.43
2018-11-14T10:15:03.404Z,11.55
2018-11-14T10:16:12.868Z,10.28
2018-11-14T10:17:22.606Z,12.23
2018-11-14T10:18:32.473Z,12.30
2018-11-14T10:19:42.250Z,11.75
2018-11-14T10:20:51.834Z,12.43
2018-11-14T10:22:01.721Z,14.07
2018-11-14T10:23:11.577Z,12.30
2018-11-14T10:24:21.412Z,12.05
2018-11-14T10:25:31.041Z,11.83
2018-11-14T10:26:40.697Z,10.63
2018-11-14T10:27:50.920Z,12.43
2018-11-14T10:29:00.633Z,10.68
2018-11-14T10:30:12.971Z,12.07
2018-11-14T10:31:22.822Z,11.50
2018-11-14T10:32:32.676Z,10.80
2018-11-14T10:33:42.549Z,11.85
2018-11-14T10:34:52.538Z,10.80
2018-11-14T10:36:02.158Z,12.18
2018-11-14T10:37:11.860Z,10.60
2018-11-14T10:38:21.645Z,11.12
2018-11-14T10:39:31.386Z,10.13
2018-11-14T10:40:41.281Z,11.20
2018-11-14T10:41:51.088Z,9.73
2018-11-14T10:43:00.897Z,10.28
2018-11-14T10:44:10.617Z,10.08
2018-11-14T10:45:21.853Z,11.08
2018-11-14T10:46:31.458Z,9.83
2018-11-14T10:47:41.640Z,9.23
2018-11-14T10:48:51.341Z,9.68
2018-11-14T10:50:01.029Z,10.45
2018-11-14T10:51:10.750Z,10.05
2018-11-14T10:52:20.474Z,10.20
2018-11-14T10:53:30.226Z,11.00
2018-11-14T10:54:39.964Z,8.80
2018-11-14T10:55:49.569Z,9.93
2018-11-14T10:56:59.432Z,11.20
2018-11-14T10:58:09.385Z,10.45
2018-11-14T10:59:19.381Z,9.55
2018-11-14T11:00:34.474Z,10.70
2018-11-14T11:02:52.585Z,10.43
2018-11-14T11:04:07.762Z,8.85
2018-11-14T11:05:22.964Z,11.18
2018-11-14T11:06:38.072Z,9.58
2018-11-14T11:07:53.365Z,10.72
2018-11-14T11:09:09.856Z,10.68
2018-11-14T11:10:24.962Z,8.90
2018-11-14T11:11:40.088Z,10.20
2018-11-14T11:12:54.939Z,11.05
2018-11-14T11:14:10.130Z,9.40
2018-11-14T11:15:28.196Z,9.60
2018-11-14T11:16:43.531Z,10.35
2018-11-14T11:17:58.894Z,12.35
2018-11-14T11:19:08.454Z,11.03
2018-11-14T11:20:18.124Z,9.80
2018-11-14T11:21:28.108Z,11.00
2018-11-14T11:22:37.746Z,10.98
2018-11-14T11:23:47.346Z,10.95
2018-11-14T11:24:57.041Z,11.28
2018-11-14T11:26:06.827Z,11.57
2018-11-14T11:27:16.401Z,10.85
2018-11-14T11:28:26.433Z,10.30
2018-11-14T11:29:36.146Z,10.63
2018-11-14T11:30:45.702Z,9.85
2018-11-14T11:31:55.747Z,10.78
2018-11-14T11:33:05.954Z,10.85
2018-11-14T11:34:15.977Z,10.98
2018-11-14T11:35:26.124Z,10.53
2018-11-14T11:36:35.945Z,9.73
2018-11-14T11:37:45.846Z,10.55
2018-11-14T11:38:55.460Z,10.78
2018-11-14T11:40:06.427Z,10.78
2018-11-14T11:41:15.973Z,12.00
2018-11-14T11:42:25.695Z,9.73
2018-11-14T11:43:35.463Z,11.38
2018-11-14T11:44:45.174Z,9.78
2018-11-14T11:45:54.938Z,10.15
2018-11-14T11:47:04.673Z,10.13
2018-11-14T11:48:14.629Z,10.30
2018-11-14T11:49:24.593Z,9.88
2018-11-14T11:50:34.148Z,10.68
2018-11-14T11:51:43.885Z,10.32
2018-11-14T11:52:53.555Z,10.60
2018-11-14T11:54:03.112Z,9.93
2018-11-14T11:55:12.716Z,11.08
2018-11-14T11:56:22.451Z,10.10
2018-11-14T11:57:32.373Z,10.23
2018-11-14T11:58:41.843Z,8.70
2018-11-14T11:59:51.969Z,11.25
2018-11-14T12:01:01.764Z,10.55
2018-11-14T12:02:11.306Z,10.63
2018-11-14T12:03:21.456Z,9.85
2018-11-14T12:04:31.109Z,11.93
2018-11-14T12:05:40.897Z,11.00
2018-11-14T12:06:50.373Z,9.63
2018-11-14T12:07:59.914Z,8.73
2018-11-14T12:09:11.085Z,11.50
2018-11-14T12:10:20.874Z,9.60
2018-11-14T12:11:31.634Z,9.60
2018-11-14T12:12:42.376Z,11.20
2018-11-14T12:13:52.406Z,10.25
2018-11-14T12:15:02.522Z,10.32
2018-11-14T12:16:12.135Z,10.40
2018-11-14T12:17:22.069Z,9.98
2018-11-14T12:18:31.807Z,9.60
2018-11-14T12:19:41.426Z,10.23
2018-11-14T12:20:51.078Z,8.85
2018-11-14T12:22:00.503Z,9.80
2018-11-14T12:23:10.259Z,9.50
2018-11-14T12:24:20.045Z,10.00
2018-11-14T12:25:29.787Z,9.13
2018-11-14T12:26:39.626Z,8.85
2018-11-14T12:27:49.672Z,8.75
2018-11-14T12:28:59.099Z,9.35
2018-11-14T12:30:11.895Z,9.28
2018-11-14T12:31:21.748Z,9.88
2018-11-14T12:32:31.725Z,8.90
2018-11-14T12:33:41.393Z,8.93
2018-11-14T12:34:51.660Z,10.93
2018-11-14T12:36:01.594Z,10.35
2018-11-14T12:37:11.358Z,8.98
2018-11-14T12:38:21.365Z,8.23
2018-11-14T12:39:31.113Z,8.45
2018-11-14T12:40:40.647Z,9.23
2018-11-14T12:41:50.398Z,10.65
2018-11-14T12:43:00.163Z,8.63
2018-11-14T12:44:09.846Z,8.30
2018-11-14T12:45:19.605Z,7.75
2018-11-14T12:46:29.154Z,8.48
2018-11-14T12:47:39.098Z,7.05
2018-11-14T12:48:48.877Z,10.13
2018-11-14T12:49:58.420Z,8.20
2018-11-14T12:51:08.682Z,8.45
2018-11-14T12:52:18.494Z,8.78
2018-11-14T12:53:28.073Z,8.55
2018-11-14T12:54:37.881Z,9.70
2018-11-14T12:55:47.461Z,9.83
2018-11-14T12:56:57.174Z,10.48
2018-11-14T12:58:06.792Z,9.60
2018-11-14T12:59:16.292Z,9.53
2018-11-14T13:00:26.010Z,9.55
2018-11-14T13:01:35.824Z,10.38
2018-11-14T13:02:45.686Z,9.63
2018-11-14T13:03:55.354Z,10.25
2018-11-14T13:05:05.850Z,9.33
2018-11-14T13:06:15.720Z,10.72
2018-11-14T13:07:25.349Z,10.30
2018-11-14T13:08:35.422Z,10.48
2018-11-14T13:09:45.203Z,10.43
2018-11-14T13:10:55.137Z,10.23
2018-11-14T13:12:05.116Z,10.25
2018-11-14T13:13:14.788Z,10.82
2018-11-14T13:14:24.425Z,9.95
2018-11-14T13:15:34.113Z,10.88
2018-11-14T13:16:43.985Z,9.30
2018-11-14T13:17:53.907Z,9.43
2018-11-14T13:19:03.338Z,9.45
2018-11-14T13:20:15.615Z,10.28
2018-11-14T13:21:25.420Z,10.50
2018-11-14T13:22:35.337Z,9.73
2018-11-14T13:23:45.100Z,9.88
2018-11-14T13:24:54.936Z,11.05
2018-11-14T13:26:04.701Z,10.20
2018-11-14T13:27:14.434Z,9.50
2018-11-14T13:28:24.505Z,11.25
2018-11-14T13:29:34.177Z,10.30
2018-11-14T13:30:43.999Z,10.85
2018-11-14T13:31:53.854Z,9.88
2018-11-14T13:33:03.589Z,10.35
2018-11-14T13:34:13.211Z,9.60
2018-11-14T13:35:23.487Z,10.20
2018-11-14T13:36:33.204Z,9.55
2018-11-14T13:37:43.535Z,10.55
2018-11-14T13:38:53.692Z,10.82
2018-11-14T13:40:03.883Z,9.75
2018-11-14T13:41:13.618Z,10.45
2018-11-14T13:42:23.269Z,11.00
2018-11-14T13:43:32.750Z,9.45
2018-11-14T13:44:42.643Z,11.73
2018-11-14T13:45:52.408Z,9.78
2018-11-14T13:47:02.614Z,10.50
2018-11-14T13:48:12.285Z,10.10
2018-11-14T13:49:22.369Z,10.95
2018-11-14T13:50:32.377Z,10.60
2018-11-14T13:51:41.934Z,9.58
2018-11-14T13:52:51.944Z,10.65
2018-11-14T13:54:01.362Z,12.28
2018-11-14T13:55:13.002Z,9.85
2018-11-14T13:56:22.493Z,11.18
2018-11-14T13:57:32.138Z,11.33
2018-11-14T13:58:41.562Z,11.08
2018-11-14T13:59:51.250Z,11.50
2018-11-14T14:01:01.016Z,10.23
2018-11-14T14:02:10.837Z,10.35
2018-11-14T14:03:20.422Z,10.50
2018-11-14T14:04:29.992Z,11.60
2018-11-14T14:05:40.040Z,10.00
2018-11-14T14:06:50.149Z,10.70
2018-11-14T14:08:00.202Z,11.08
2018-11-14T14:09:11.692Z,9.75
2018-11-14T14:10:21.318Z,10.80
2018-11-14T14:11:31.005Z,12.15
2018-11-14T14:12:41.942Z,10.15
2018-11-14T14:13:56.973Z,10.43
2018-11-14T14:15:09.308Z,10.60
2018-11-14T14:16:19.142Z,10.55
2018-11-14T14:17:28.682Z,9.78
2018-11-14T14:18:38.161Z,9.58
2018-11-14T14:19:48.095Z,10.90
2018-11-14T14:20:57.784Z,10.18
2018-11-14T14:22:07.565Z,9.80
2018-11-14T14:23:17.451Z,9.80
2018-11-14T14:24:27.067Z,10.50
2018-11-14T14:25:37.049Z,12.80
2018-11-14T14:26:47.015Z,10.03
2018-11-14T14:27:56.647Z,11.28
2018-11-14T14:29:06.624Z,11.60
2018-11-14T14:30:17.734Z,10.10
2018-11-14T14:31:27.708Z,10.48
2018-11-14T14:32:37.966Z,9.75
2018-11-14T14:33:48.041Z,10.35
2018-11-14T14:34:57.841Z,9.50
2018-11-14T14:36:07.522Z,10.58
2018-11-14T14:37:17.186Z,10.38
2018-11-14T14:38:27.073Z,9.18
2018-11-14T14:39:36.708Z,10.18
2018-11-14T14:40:46.812Z,11.15
2018-11-14T14:41:56.670Z,10.58
2018-11-14T14:43:06.300Z,9.88
2018-11-14T14:44:16.170Z,10.88
2018-11-14T14:45:26.729Z,9.53
2018-11-14T14:46:36.668Z,10.25
2018-11-14T14:47:46.272Z,10.32
2018-11-14T14:48:56.239Z,11.73
2018-11-14T14:50:07.912Z,11.57
2018-11-14T14:51:17.652Z,13.03
2018-11-14T14:52:27.250Z,9.78
2018-11-14T14:53:37.121Z,11.90
2018-11-14T14:54:46.673Z,10.58
2018-11-14T14:55:56.516Z,10.38
2018-11-14T14:57:06.314Z,10.72
2018-11-14T14:58:15.954Z,10.08
2018-11-14T14:59:25.685Z,9.53
2018-11-14T15:00:35.547Z,10.00
2018-11-14T15:01:45.489Z,11.48
2018-11-14T15:02:55.089Z,10.05
2018-11-14T15:04:04.934Z,9.43
2018-11-14T15:05:14.815Z,8.93
2018-11-14T15:06:24.601Z,12.15
2018-11-14T15:07:34.616Z,11.70
2018-11-14T15:08:44.310Z,10.10
2018-11-14T15:09:54.074Z,10.55
2018-11-14T15:11:04.059Z,11.10
2018-11-14T15:12:13.854Z,11.30
2018-11-14T15:13:23.823Z,10.72
2018-11-14T15:14:33.842Z,10.70
2018-11-14T15:15:43.792Z,9.80
2018-11-14T15:16:53.465Z,11.68
2018-11-14T15:18:03.266Z,11.15
2018-11-14T15:19:12.910Z,11.73
2018-11-14T15:20:23.944Z,11.25
2018-11-14T15:21:33.965Z,10.55
2018-11-14T15:22:44.028Z,11.80
2018-11-14T15:23:53.770Z,12.30
2018-11-14T15:25:03.520Z,11.15
2018-11-14T15:26:13.404Z,11.80